createdAt,value
2018-10-21T00:01:32.000Z,75.63
2018-10-21T00:03:59.483Z,75.97
2018-10-21T00:06:26.863Z,73.17
2018-10-21T00:08:54.315Z,66.47
2018-10-21T00:11:21.776Z,75.20
2018-10-21T00:13:49.213Z,71.40
2018-10-21T00:16:16.657Z,62.57
2018-10-21T00:18:43.994Z,62.00
2018-10-21T00:21:11.494Z,73.10
2018-10-21T00:23:38.868Z,76.10
2018-10-21T00:26:06.330Z,62.17
2018-10-21T00:28:33.764Z,59.17
2018-10-21T00:31:01.180Z,58.13
2018-10-21T00:33:28.610Z,57.13
2018-10-21T00:35:56.038Z,56.13
2018-10-21T00:38:23.420Z,49.67
2018-10-21T00:40:50.852Z,53.13
2018-10-21T00:43:18.312Z,55.53
2018-10-21T00:45:45.762Z,59.63
2018-10-21T00:48:13.141Z,61.33
2018-10-21T00:50:40.584Z,60.63
2018-10-21T00:53:07.913Z,62.30
2018-10-21T00:55:35.393Z,61.93
2018-10-21T00:58:02.829Z,67.50
2018-10-21T01:00:30.309Z,60.17
2018-10-21T01:02:58.063Z,64.50
2018-10-21T01:05:25.466Z,54.43
2018-10-21T01:07:52.887Z,56.37
2018-10-21T01:10:20.269Z,55.47
2018-10-21T01:12:47.721Z,52.03
2018-10-21T01:15:15.213Z,54.50
2018-10-21T01:17:42.572Z,60.78
2018-10-21T01:20:11.461Z,59.37
2018-10-21T01:22:39.458Z,56.87
2018-10-21T01:25:07.652Z,57.20
2018-10-21T01:27:35.121Z,61.27
2018-10-21T01:30:02.568Z,65.03
2018-10-21T01:32:30.022Z,59.20
2018-10-21T01:34:57.439Z,54.77
2018-10-21T01:37:24.852Z,55.07
2018-10-21T01:40:56.685Z,53.97
2018-10-21T01:43:29.383Z,50.60
2018-10-21T01:45:57.109Z,58.00
2018-10-21T01:48:25.723Z,54.90
2018-10-21T01:50:53.096Z,50.77
2018-10-21T01:53:21.063Z,49.90
2018-10-21T01:55:48.593Z,46.57
2018-10-21T01:58:16.041Z,49.70
2018-10-21T02:00:43.738Z,51.77
2018-10-21T02:03:11.279Z,50.53
2018-10-21T02:05:39.304Z,54.20
2018-10-21T02:08:06.725Z,52.67
2018-10-21T02:10:34.149Z,51.13
2018-10-21T02:13:01.601Z,46.17
2018-10-21T02:15:29.031Z,47.03
2018-10-21T02:17:56.473Z,42.60
2018-10-21T02:20:24.380Z,45.47
2018-10-21T02:22:52.191Z,46.57
2018-10-21T02:25:19.614Z,47.07
2018-10-21T02:27:47.906Z,45.63
2018-10-21T02:30:17.716Z,46.23
2018-10-21T02:32:45.864Z,44.43
2018-10-21T02:35:13.993Z,43.60
2018-10-21T02:37:41.714Z,44.93
2018-10-21T02:41:25.885Z,46.67
2018-10-21T02:43:53.391Z,62.83
2018-10-21T02:46:21.781Z,54.43
2018-10-21T02:48:49.812Z,49.60
2018-10-21T02:51:17.291Z,50.73
2018-10-21T02:53:44.619Z,46.37
2018-10-21T02:56:12.095Z,49.53
2018-10-21T02:58:40.249Z,46.77
2018-10-21T03:01:08.005Z,47.17
2018-10-21T03:03:35.458Z,47.70
2018-10-21T03:06:03.228Z,50.23
2018-10-21T03:08:30.640Z,46.00
2018-10-21T03:10:58.427Z,51.00
2018-10-21T03:13:25.864Z,43.73
2018-10-21T03:15:53.329Z,43.93
2018-10-21T03:18:20.784Z,48.40
2018-10-21T03:20:48.116Z,43.67
2018-10-21T03:23:15.535Z,43.57
2018-10-21T03:25:43.444Z,45.00
2018-10-21T03:28:10.906Z,39.77
2018-10-21T03:30:38.283Z,40.93
2018-10-21T03:33:05.976Z,40.97
2018-10-21T03:35:33.436Z,43.53
2018-10-21T03:38:00.837Z,43.33
2018-10-21T03:40:28.248Z,42.37
2018-10-21T03:42:55.638Z,46.17
2018-10-21T03:45:32.040Z,45.97
2018-10-21T03:47:59.455Z,43.63
2018-10-21T03:50:27.460Z,42.53
2018-10-21T03:52:54.994Z,43.03
2018-10-21T03:55:22.639Z,42.73
2018-10-21T03:57:50.005Z,45.53
2018-10-21T04:00:17.480Z,40.90
2018-10-21T04:02:44.902Z,42.87
2018-10-21T04:05:12.594Z,40.27
2018-10-21T04:07:40.356Z,41.73
2018-10-21T04:10:07.822Z,39.17
2018-10-21T04:12:35.198Z,42.53
2018-10-21T04:15:02.656Z,37.90
2018-10-21T04:17:30.040Z,40.80
2018-10-21T04:19:57.453Z,39.10
2018-10-21T04:22:25.137Z,33.93
2018-10-21T04:24:52.520Z,37.30
2018-10-21T04:27:19.949Z,36.30
2018-10-21T04:29:47.606Z,37.83
2018-10-21T04:32:15.102Z,36.20
2018-10-21T04:34:42.549Z,34.90
2018-10-21T04:37:21.226Z,35.30
2018-10-21T04:40:03.038Z,34.63
2018-10-21T04:42:30.580Z,50.90
2018-10-21T04:44:58.160Z,37.50
2018-10-21T04:47:25.610Z,37.50
2018-10-21T04:49:53.004Z,39.37
2018-10-21T04:52:20.720Z,39.17
2018-10-21T04:54:48.080Z,38.53
2018-10-21T04:57:15.515Z,50.83
2018-10-21T04:59:42.911Z,44.37
2018-10-21T05:02:10.347Z,43.37
2018-10-21T05:04:37.756Z,39.40
2018-10-21T05:07:05.260Z,41.30
2018-10-21T05:09:32.627Z,38.70
2018-10-21T05:12:00.065Z,35.90
2018-10-21T05:14:27.484Z,34.67
2018-10-21T05:16:54.873Z,37.33
2018-10-21T05:19:22.273Z,37.40
2018-10-21T05:21:49.841Z,37.87
2018-10-21T05:24:17.252Z,36.43
2018-10-21T05:26:44.647Z,40.40
2018-10-21T05:29:12.151Z,38.73
2018-10-21T05:31:39.560Z,40.67
2018-10-21T05:34:07.190Z,35.77
2018-10-21T05:36:34.660Z,39.43
2018-10-21T05:39:02.143Z,36.50
2018-10-21T05:41:29.555Z,36.07
2018-10-21T05:43:57.019Z,36.33
2018-10-21T05:46:35.791Z,41.80
2018-10-21T05:49:03.192Z,37.87
2018-10-21T05:51:30.576Z,45.47
2018-10-21T05:53:58.023Z,43.93
2018-10-21T05:56:25.473Z,41.07
2018-10-21T05:58:52.876Z,41.50
2018-10-21T06:01:20.281Z,40.13
2018-10-21T06:03:47.682Z,42.10
2018-10-21T06:06:15.156Z,45.73
2018-10-21T06:08:42.546Z,48.07
2018-10-21T06:11:09.962Z,47.67
2018-10-21T06:13:37.353Z,49.20
2018-10-21T06:16:04.927Z,40.73
2018-10-21T06:18:32.286Z,47.07
2018-10-21T06:21:01.858Z,42.67
2018-10-21T06:23:29.238Z,46.83
2018-10-21T06:25:56.677Z,42.70
2018-10-21T06:28:24.102Z,37.63
2018-10-21T06:30:51.497Z,37.87
2018-10-21T06:33:18.911Z,39.10
2018-10-21T06:35:46.337Z,43.00
2018-10-21T06:38:13.705Z,38.67
2018-10-21T06:40:41.122Z,49.47
2018-10-21T06:43:08.572Z,44.33
2018-10-21T06:45:36.028Z,44.20
2018-10-21T06:48:03.674Z,46.80
2018-10-21T06:50:31.078Z,40.50
2018-10-21T06:52:58.678Z,41.03
2018-10-21T06:55:26.091Z,41.93
2018-10-21T06:57:53.607Z,41.80
2018-10-21T07:00:20.921Z,42.33
2018-10-21T07:02:48.401Z,41.80
2018-10-21T07:05:27.116Z,57.77
2018-10-21T07:07:54.557Z,52.17
2018-10-21T07:10:21.953Z,38.70
2018-10-21T07:12:49.526Z,34.20
2018-10-21T07:15:17.290Z,35.30
2018-10-21T07:17:44.971Z,37.83
2018-10-21T07:20:12.473Z,43.03
2018-10-21T07:22:40.488Z,44.67
2018-10-21T07:25:08.662Z,47.17
2018-10-21T07:27:36.091Z,62.07
2018-10-21T07:30:03.773Z,57.80
2018-10-21T07:32:31.191Z,54.23
2018-10-21T07:34:58.628Z,48.53
2018-10-21T07:37:26.022Z,45.00
2018-10-21T07:39:53.453Z,37.33
2018-10-21T07:42:20.923Z,35.67
2018-10-21T07:44:48.418Z,34.73
2018-10-21T07:47:15.849Z,28.30
2018-10-21T07:49:43.238Z,32.23
2018-10-21T07:52:10.657Z,33.87
2018-10-21T07:54:38.093Z,34.03
2018-10-21T07:57:05.508Z,33.70
2018-10-21T07:59:32.982Z,34.97
2018-10-21T08:02:00.480Z,35.27
2018-10-21T08:04:27.887Z,33.10
2018-10-21T08:07:06.509Z,35.10
2018-10-21T08:09:33.933Z,32.33
2018-10-21T08:12:01.385Z,29.57
2018-10-21T08:14:28.796Z,34.00
2018-10-21T08:16:56.244Z,34.60
2018-10-21T08:19:23.648Z,30.77
2018-10-21T08:21:51.177Z,28.30
2018-10-21T08:24:18.604Z,33.73
2018-10-21T08:26:46.131Z,31.77
2018-10-21T08:29:13.555Z,30.97
2018-10-21T08:31:41.034Z,30.03
2018-10-21T08:34:08.543Z,31.33
2018-10-21T08:36:36.002Z,29.50
2018-10-21T08:39:04.755Z,28.87
2018-10-21T08:41:32.233Z,25.40
2018-10-21T08:43:59.750Z,26.40
2018-10-21T08:46:27.354Z,27.23
2018-10-21T08:48:54.682Z,25.87
2018-10-21T08:51:22.123Z,27.63
2018-10-21T08:53:49.589Z,23.50
2018-10-21T08:56:17.022Z,25.60
2018-10-21T08:58:44.506Z,26.73
2018-10-21T09:01:12.038Z,25.70
2018-10-21T09:03:39.479Z,25.03
2018-10-21T09:06:06.902Z,26.70
2018-10-21T09:08:34.347Z,27.13
2018-10-21T09:11:01.849Z,25.60
2018-10-21T09:13:29.232Z,23.50
2018-10-21T09:15:56.633Z,29.07
2018-10-21T09:18:24.123Z,26.47
2018-10-21T09:20:51.526Z,26.83
2018-10-21T09:23:18.964Z,25.77
2018-10-21T09:25:46.367Z,23.43
2018-10-21T09:28:13.858Z,27.83
2018-10-21T09:30:41.210Z,26.23
2018-10-21T09:33:08.638Z,23.23
2018-10-21T09:35:36.101Z,22.47
2018-10-21T09:38:03.568Z,25.67
2018-10-21T09:40:31.061Z,21.93
2018-10-21T09:42:58.554Z,20.73
2018-10-21T09:45:26.083Z,18.63
2018-10-21T09:47:53.509Z,19.77
2018-10-21T09:50:20.991Z,17.90
2018-10-21T09:52:48.405Z,20.83
2018-10-21T09:55:17.745Z,17.53
2018-10-21T09:57:45.947Z,21.50
2018-10-21T10:00:17.972Z,16.80
2018-10-21T10:02:51.147Z,18.23
2018-10-21T10:05:18.655Z,16.63
2018-10-21T10:07:46.052Z,18.33
2018-10-21T10:10:13.645Z,19.30
2018-10-21T10:12:40.990Z,18.33
2018-10-21T10:15:08.858Z,20.93
2018-10-21T10:17:36.367Z,21.83
2018-10-21T10:20:04.894Z,22.40
2018-10-21T10:22:32.384Z,23.23
2018-10-21T10:24:59.886Z,21.30
2018-10-21T10:27:27.449Z,19.57
2018-10-21T10:29:54.849Z,19.83
2018-10-21T10:32:22.293Z,22.53
2018-10-21T10:34:49.683Z,19.47
2018-10-21T10:37:17.255Z,18.73
2018-10-21T10:39:44.592Z,19.50
2018-10-21T10:42:12.062Z,17.73
2018-10-21T10:44:39.504Z,19.70
2018-10-21T10:47:06.985Z,20.00
2018-10-21T10:49:34.429Z,18.50
2018-10-21T10:52:01.958Z,16.47
2018-10-21T10:54:29.409Z,16.30
2018-10-21T10:56:56.849Z,15.63
2018-10-21T10:59:24.316Z,16.00
2018-10-21T11:01:51.773Z,13.13
2018-10-21T11:04:19.346Z,14.20
2018-10-21T11:06:46.705Z,15.53
2018-10-21T11:09:14.186Z,15.90
2018-10-21T11:11:41.562Z,12.07
2018-10-21T11:14:09.007Z,13.93
2018-10-21T11:16:36.404Z,13.13
2018-10-21T11:19:03.923Z,11.63
2018-10-21T11:21:31.349Z,10.43
2018-10-21T11:23:58.732Z,8.63
2018-10-21T11:26:26.657Z,12.23
2018-10-21T11:28:54.099Z,8.70
2018-10-21T11:31:21.482Z,8.80
2018-10-21T11:33:48.959Z,7.47
2018-10-21T11:36:16.377Z,5.90
2018-10-21T11:38:43.817Z,5.77
2018-10-21T11:41:11.259Z,7.27
2018-10-21T11:43:38.744Z,8.40
2018-10-21T11:46:06.253Z,7.03
2018-10-21T11:48:33.730Z,8.97
2018-10-21T11:51:01.207Z,10.00
2018-10-21T11:53:28.647Z,7.97
2018-10-21T11:55:56.054Z,8.17
2018-10-21T11:58:23.424Z,7.87
2018-10-21T12:00:50.944Z,6.83
2018-10-21T12:03:18.764Z,5.50
2018-10-21T12:05:46.205Z,6.03
2018-10-21T12:08:13.714Z,7.70
2018-10-21T12:10:41.199Z,5.37
2018-10-21T12:13:08.645Z,5.50
2018-10-21T12:15:36.754Z,7.13
2018-10-21T12:18:04.545Z,9.70
2018-10-21T12:20:32.003Z,7.23
2018-10-21T12:22:59.542Z,7.97
2018-10-21T12:25:26.970Z,5.77
2018-10-21T12:27:54.411Z,6.17
2018-10-21T12:30:21.803Z,9.10
2018-10-21T12:32:49.220Z,7.67
2018-10-21T12:35:16.732Z,6.80
2018-10-21T12:37:44.123Z,10.23
2018-10-21T12:40:11.629Z,9.00
2018-10-21T12:42:39.243Z,6.00
2018-10-21T12:45:08.303Z,6.53
2018-10-21T12:47:35.754Z,6.47
2018-10-21T12:50:03.288Z,6.72
2018-10-21T12:52:30.743Z,6.30
2018-10-21T12:54:58.274Z,7.13
2018-10-21T12:57:25.715Z,6.17
2018-10-21T12:59:53.143Z,7.20
2018-10-21T13:02:20.664Z,6.10
2018-10-21T13:04:48.043Z,9.67
2018-10-21T13:07:15.535Z,5.07
2018-10-21T13:09:42.925Z,6.67
2018-10-21T13:12:10.339Z,5.43
2018-10-21T13:14:37.786Z,5.53
2018-10-21T13:17:05.312Z,6.93
2018-10-21T13:19:32.861Z,5.80
2018-10-21T13:22:00.659Z,6.27
2018-10-21T13:24:28.155Z,5.17
2018-10-21T13:26:55.535Z,6.80
2018-10-21T13:29:23.019Z,4.57
2018-10-21T13:31:50.477Z,5.73
2018-10-21T13:34:18.037Z,6.07
2018-10-21T13:36:45.543Z,6.77
2018-10-21T13:39:14.093Z,7.27
2018-10-21T13:41:42.516Z,5.90
2018-10-21T13:44:10.284Z,4.87
2018-10-21T13:46:37.740Z,6.30
2018-10-21T13:49:05.373Z,4.90
2018-10-21T13:51:32.896Z,6.40
2018-10-21T13:54:00.400Z,7.13
2018-10-21T13:56:27.854Z,5.00
2018-10-21T13:58:56.205Z,5.63
2018-10-21T14:01:23.718Z,7.07
2018-10-21T14:03:51.148Z,8.90
2018-10-21T14:06:18.526Z,6.93
2018-10-21T14:08:46.013Z,6.23
2018-10-21T14:11:13.504Z,4.90
2018-10-21T14:13:40.925Z,4.80
2018-10-21T14:16:08.525Z,5.73
2018-10-21T14:18:35.994Z,4.60
2018-10-21T14:21:03.429Z,4.03
2018-10-21T14:23:31.061Z,4.57
2018-10-21T14:25:58.487Z,3.57
2018-10-21T14:28:25.997Z,4.70
2018-10-21T14:30:53.513Z,4.07
2018-10-21T14:33:21.133Z,6.90
2018-10-21T14:35:48.663Z,5.63
2018-10-21T14:38:16.167Z,5.97
2018-10-21T14:40:43.644Z,5.50
2018-10-21T14:43:11.108Z,5.17
2018-10-21T14:45:38.607Z,4.27
2018-10-21T14:48:06.108Z,3.60
2018-10-21T14:50:33.505Z,5.63
2018-10-21T14:53:01.008Z,3.37
2018-10-21T14:55:28.521Z,3.60
2018-10-21T14:57:55.984Z,5.23
2018-10-21T15:00:23.542Z,4.93
2018-10-21T15:02:50.935Z,3.70
2018-10-21T15:05:18.349Z,6.10
2018-10-21T15:07:46.273Z,5.73
2018-10-21T15:10:13.751Z,6.37
2018-10-21T15:12:41.153Z,3.33
2018-10-21T15:15:09.515Z,3.27
2018-10-21T15:17:37.036Z,4.07
2018-10-21T15:20:05.199Z,4.73
2018-10-21T15:22:32.604Z,5.60
2018-10-21T15:25:00.099Z,3.00
2018-10-21T15:27:27.555Z,3.53
2018-10-21T15:29:55.133Z,7.00
2018-10-21T15:32:22.543Z,4.43
2018-10-21T15:34:50.064Z,9.77
2018-10-21T15:37:17.425Z,5.37
2018-10-21T15:39:44.930Z,6.00
2018-10-21T15:42:12.309Z,3.53
2018-10-21T15:44:39.729Z,5.10
2018-10-21T15:47:07.243Z,5.13
2018-10-21T15:49:34.698Z,4.80
2018-10-21T15:52:02.327Z,3.97
2018-10-21T15:54:30.255Z,7.70
2018-10-21T15:56:57.724Z,5.43
2018-10-21T15:59:25.194Z,5.90
2018-10-21T16:01:52.645Z,4.37
2018-10-21T16:04:20.069Z,5.10
2018-10-21T16:06:47.551Z,7.77
2018-10-21T16:09:19.609Z,5.87
2018-10-21T16:11:55.552Z,6.07
2018-10-21T16:14:23.214Z,5.43
2018-10-21T16:16:50.695Z,4.80
2018-10-21T16:19:18.130Z,4.57
2018-10-21T16:21:45.644Z,7.63
2018-10-21T16:24:13.045Z,14.53
2018-10-21T16:26:40.529Z,9.85
2018-10-21T16:29:07.924Z,6.97
2018-10-21T16:31:35.371Z,7.70
2018-10-21T16:34:02.940Z,7.83
2018-10-21T16:36:30.427Z,6.33
2018-10-21T16:38:57.847Z,7.70
2018-10-21T16:41:27.757Z,6.57
2018-10-21T16:43:55.286Z,6.77
2018-10-21T16:46:22.831Z,7.27
2018-10-21T16:48:50.295Z,8.27
2018-10-21T16:51:17.735Z,7.07
2018-10-21T16:53:45.185Z,6.70
2018-10-21T16:56:12.624Z,7.53
2018-10-21T16:58:40.041Z,7.83
2018-10-21T17:01:07.985Z,6.97
2018-10-21T17:03:35.324Z,10.37
2018-10-21T17:06:02.779Z,9.20
2018-10-21T17:08:30.305Z,15.43
2018-10-21T17:10:57.811Z,8.43
2018-10-21T17:13:25.181Z,9.10
2018-10-21T17:15:52.630Z,11.87
2018-10-21T17:18:20.196Z,14.33
2018-10-21T17:20:47.645Z,14.60
2018-10-21T17:23:15.141Z,14.20
2018-10-21T17:25:42.609Z,11.90
2018-10-21T17:28:10.124Z,16.07
2018-10-21T17:30:37.561Z,10.83
2018-10-21T17:33:05.011Z,28.43
2018-10-21T17:35:32.510Z,34.27
2018-10-21T17:37:59.922Z,37.23
2018-10-21T17:40:27.426Z,24.07
2018-10-21T17:42:54.932Z,21.97
2018-10-21T17:45:22.445Z,23.20
2018-10-21T17:47:49.898Z,25.40
2018-10-21T17:50:17.406Z,30.40
2018-10-21T17:52:44.862Z,41.13
2018-10-21T17:55:12.704Z,42.70
2018-10-21T17:57:40.186Z,54.93
2018-10-21T18:00:09.219Z,50.90
2018-10-21T18:02:36.850Z,45.27
2018-10-21T18:05:06.381Z,40.50
2018-10-21T18:07:33.901Z,54.50
2018-10-21T18:10:01.371Z,65.93
2018-10-21T18:12:28.837Z,66.23
2018-10-21T18:14:56.292Z,80.40
2018-10-21T18:17:23.820Z,82.90
2018-10-21T18:19:51.280Z,58.60
2018-10-21T18:22:18.809Z,64.77
2018-10-21T18:24:46.194Z,62.93
2018-10-21T18:27:13.665Z,68.13
2018-10-21T18:29:41.107Z,57.37
2018-10-21T18:32:08.789Z,35.40
2018-10-21T18:34:36.239Z,38.30
2018-10-21T18:37:03.747Z,32.83
2018-10-21T18:39:31.234Z,33.07
2018-10-21T18:41:58.681Z,38.93
2018-10-21T18:44:26.211Z,33.07
2018-10-21T18:46:53.661Z,31.23
2018-10-21T18:49:21.157Z,27.57
2018-10-21T18:51:48.601Z,29.40
2018-10-21T18:54:16.105Z,25.63
2018-10-21T18:56:44.055Z,22.70
2018-10-21T18:59:11.517Z,23.17
2018-10-21T19:01:53.221Z,20.97
2018-10-21T19:04:20.775Z,33.50
2018-10-21T19:06:48.290Z,43.97
2018-10-21T19:09:19.382Z,57.73
2018-10-21T19:11:47.261Z,53.50
2018-10-21T19:14:14.856Z,48.07
2018-10-21T19:16:42.277Z,44.80
2018-10-21T19:19:09.939Z,36.00
2018-10-21T19:21:37.641Z,23.97
2018-10-21T19:24:05.170Z,19.37
2018-10-21T19:26:32.696Z,15.73
2018-10-21T19:29:00.146Z,28.90
2018-10-21T19:31:27.622Z,35.43
2018-10-21T19:33:55.129Z,39.53
2018-10-21T19:36:22.530Z,43.90
2018-10-21T19:38:49.943Z,39.07
2018-10-21T19:41:17.420Z,35.77
2018-10-21T19:43:44.905Z,27.03
2018-10-21T19:46:12.416Z,30.90
2018-10-21T19:48:39.835Z,30.70
2018-10-21T19:51:07.277Z,26.67
2018-10-21T19:53:34.756Z,30.33
2018-10-21T19:56:02.201Z,21.20
2018-10-21T19:58:29.758Z,20.90
2018-10-21T20:00:57.219Z,21.87
2018-10-21T20:03:24.703Z,20.67
2018-10-21T20:05:52.200Z,22.37
2018-10-21T20:08:19.657Z,29.83
2018-10-21T20:10:47.096Z,28.37
2018-10-21T20:13:14.583Z,32.23
2018-10-21T20:15:41.989Z,38.90
2018-10-21T20:18:09.462Z,35.67
2018-10-21T20:20:36.952Z,46.67
2018-10-21T20:23:04.982Z,43.87
2018-10-21T20:25:32.376Z,37.27
2018-10-21T20:27:59.864Z,39.23
2018-10-21T20:30:27.281Z,30.43
2018-10-21T20:32:54.782Z,25.37
2018-10-21T20:35:22.152Z,27.60
2018-10-21T20:37:49.598Z,26.80
2018-10-21T20:40:17.198Z,27.47
2018-10-21T20:42:44.515Z,26.60
2018-10-21T20:45:12.775Z,24.13
2018-10-21T20:47:41.051Z,22.20
2018-10-21T20:50:08.581Z,19.63
2018-10-21T20:52:36.475Z,21.53
2018-10-21T20:55:04.946Z,19.67
2018-10-21T20:57:32.808Z,16.33
2018-10-21T21:00:00.538Z,15.60
2018-10-21T21:02:28.620Z,15.37
2018-10-21T21:04:56.550Z,15.00
2018-10-21T21:07:24.172Z,14.10
2018-10-21T21:09:51.739Z,12.27
2018-10-21T21:12:19.759Z,11.60
2018-10-21T21:14:50.125Z,11.60
2018-10-21T21:17:18.241Z,17.17
2018-10-21T21:19:50.340Z,12.40
2018-10-21T21:22:17.971Z,17.53
2018-10-21T21:24:45.325Z,14.57
2018-10-21T21:27:12.763Z,15.93
2018-10-21T21:29:40.196Z,15.70
2018-10-21T21:32:07.613Z,9.87
2018-10-21T21:34:35.067Z,9.43
2018-10-21T21:37:02.560Z,12.37
2018-10-21T21:39:29.911Z,12.27
2018-10-21T21:41:57.363Z,15.77
2018-10-21T21:44:24.794Z,11.20
2018-10-21T21:46:52.165Z,11.73
2018-10-21T21:49:19.571Z,12.53
2018-10-21T21:51:46.997Z,13.67
2018-10-21T21:54:15.377Z,15.10
2018-10-21T21:56:44.516Z,15.93
2018-10-21T21:59:11.990Z,14.77
2018-10-21T22:01:39.465Z,13.87
2018-10-21T22:04:07.336Z,13.87
2018-10-21T22:06:34.827Z,13.80
2018-10-21T22:09:02.339Z,12.03
2018-10-21T22:11:29.786Z,12.07
2018-10-21T22:13:57.197Z,11.03
2018-10-21T22:16:24.634Z,9.70
2018-10-21T22:18:52.105Z,10.60
2018-10-21T22:21:19.510Z,10.53
2018-10-21T22:23:46.913Z,9.93
2018-10-21T22:26:14.317Z,9.23
2018-10-21T22:28:41.746Z,9.83
2018-10-21T22:31:09.167Z,8.67
2018-10-21T22:33:36.569Z,10.27
2018-10-21T22:36:04.029Z,8.63
2018-10-21T22:38:31.420Z,8.10
2018-10-21T22:40:58.811Z,8.23
2018-10-21T22:43:26.296Z,9.43
2018-10-21T22:45:53.749Z,7.97
2018-10-21T22:48:21.185Z,9.77
2018-10-21T22:50:48.596Z,8.60
2018-10-21T22:53:16.042Z,8.63
2018-10-21T22:55:43.468Z,11.40
2018-10-21T22:58:10.870Z,12.00
2018-10-21T23:00:38.274Z,10.07
2018-10-21T23:03:05.713Z,9.23
2018-10-21T23:05:33.158Z,10.50
2018-10-21T23:08:00.566Z,11.07
2018-10-21T23:10:27.944Z,10.33
2018-10-21T23:12:55.394Z,9.70
2018-10-21T23:15:22.815Z,15.00
2018-10-21T23:17:50.221Z,15.63
2018-10-21T23:20:17.674Z,16.57
2018-10-21T23:22:45.076Z,17.13
2018-10-21T23:25:12.437Z,12.93
2018-10-21T23:27:39.839Z,14.83
2018-10-21T23:30:07.532Z,16.43
2018-10-21T23:32:34.962Z,16.50
2018-10-21T23:35:02.413Z,14.40
2018-10-21T23:37:29.827Z,11.73
2018-10-21T23:39:57.277Z,10.77
2018-10-21T23:42:24.653Z,12.33
2018-10-21T23:44:52.114Z,11.20
2018-10-21T23:47:19.530Z,11.30
2018-10-21T23:49:46.917Z,9.83
2018-10-21T23:52:14.301Z,11.77
2018-10-21T23:54:41.726Z,11.23
2018-10-21T23:57:09.134Z,10.43
2018-10-21T23:59:36.918Z,11.67
